sensor_id;sensor_type;location;lat;lon;timestamp;P1;durP1;ratioP1;P2;durP2;ratioP2
39426;SDS011;25938;48.470;1.486;2023-02-20T00:01:44;9.73;;;5.03;;
39426;SDS011;25938;48.470;1.486;2023-02-20T00:04:10;6.47;;;4.47;;
39426;SDS011;25938;48.470;1.486;2023-02-20T00:06:36;6.40;;;4.35;;
39426;SDS011;25938;48.470;1.486;2023-02-20T00:09:02;7.18;;;4.90;;
39426;SDS011;25938;48.470;1.486;2023-02-20T00:11:28;6.82;;;4.20;;
39426;SDS011;25938;48.470;1.486;2023-02-20T00:13:54;4.85;;;4.35;;
39426;SDS011;25938;48.470;1.486;2023-02-20T00:16:20;5.32;;;4.63;;
39426;SDS011;25938;48.470;1.486;2023-02-20T00:18:46;8.07;;;4.70;;
39426;SDS011;25938;48.470;1.486;2023-02-20T00:21:12;6.32;;;3.97;;
39426;SDS011;25938;48.470;1.486;2023-02-20T00:23:38;5.20;;;4.70;;
39426;SDS011;25938;48.470;1.486;2023-02-20T00:26:08;6.63;;;5.40;;
39426;SDS011;25938;48.470;1.486;2023-02-20T00:28:36;9.23;;;4.60;;
39426;SDS011;25938;48.470;1.486;2023-02-20T00:31:02;7.13;;;4.32;;
39426;SDS011;25938;48.470;1.486;2023-02-20T00:33:28;8.77;;;5.25;;
39426;SDS011;25938;48.470;1.486;2023-02-20T00:35:55;7.43;;;4.88;;
39426;SDS011;25938;48.470;1.486;2023-02-20T00:38:21;5.88;;;4.40;;
39426;SDS011;25938;48.470;1.486;2023-02-20T00:40:47;7.07;;;4.90;;
39426;SDS011;25938;48.470;1.486;2023-02-20T00:43:13;6.68;;;5.25;;
39426;SDS011;25938;48.470;1.486;2023-02-20T00:45:39;4.40;;;4.00;;
39426;SDS011;25938;48.470;1.486;2023-02-20T00:48:05;5.85;;;3.95;;
39426;SDS011;25938;48.470;1.486;2023-02-20T00:50:31;9.27;;;4.38;;
39426;SDS011;25938;48.470;1.486;2023-02-20T00:52:57;6.68;;;4.32;;
39426;SDS011;25938;48.470;1.486;2023-02-20T00:55:23;4.85;;;4.32;;
39426;SDS011;25938;48.470;1.486;2023-02-20T00:57:49;7.63;;;4.57;;
39426;SDS011;25938;48.470;1.486;2023-02-20T01:00:26;7.30;;;4.75;;
39426;SDS011;25938;48.470;1.486;2023-02-20T01:02:52;6.30;;;4.57;;
39426;SDS011;25938;48.470;1.486;2023-02-20T01:05:18;5.93;;;4.70;;
39426;SDS011;25938;48.470;1.486;2023-02-20T01:07:45;6.88;;;4.82;;
39426;SDS011;25938;48.470;1.486;2023-02-20T01:10:11;7.80;;;4.45;;
39426;SDS011;25938;48.470;1.486;2023-02-20T01:12:37;5.68;;;4.43;;
39426;SDS011;25938;48.470;1.486;2023-02-20T01:15:04;5.65;;;4.05;;
39426;SDS011;25938;48.470;1.486;2023-02-20T01:17:31;5.25;;;4.00;;
39426;SDS011;25938;48.470;1.486;2023-02-20T01:19:57;6.68;;;4.78;;
39426;SDS011;25938;48.470;1.486;2023-02-20T01:22:23;9.23;;;5.15;;
39426;SDS011;25938;48.470;1.486;2023-02-20T01:24:49;6.38;;;4.30;;
39426;SDS011;25938;48.470;1.486;2023-02-20T01:27:15;6.20;;;4.43;;
39426;SDS011;25938;48.470;1.486;2023-02-20T01:29:41;6.43;;;5.05;;
39426;SDS011;25938;48.470;1.486;2023-02-20T01:32:10;7.13;;;4.57;;
39426;SDS011;25938;48.470;1.486;2023-02-20T01:34:36;6.28;;;4.78;;
39426;SDS011;25938;48.470;1.486;2023-02-20T01:37:02;7.43;;;5.03;;
39426;SDS011;25938;48.470;1.486;2023-02-20T01:39:28;7.72;;;5.10;;
39426;SDS011;25938;48.470;1.486;2023-02-20T01:41:57;5.10;;;3.90;;
39426;SDS011;25938;48.470;1.486;2023-02-20T01:44:25;4.72;;;4.05;;
39426;SDS011;25938;48.470;1.486;2023-02-20T01:46:53;5.35;;;3.88;;
39426;SDS011;25938;48.470;1.486;2023-02-20T01:54:37;7.50;;;4.43;;
39426;SDS011;25938;48.470;1.486;2023-02-20T01:57:04;5.03;;;4.25;;
39426;SDS011;25938;48.470;1.486;2023-02-20T01:59:34;4.50;;;4.03;;
39426;SDS011;25938;48.470;1.486;2023-02-20T02:02:02;5.35;;;3.85;;
39426;SDS011;25938;48.470;1.486;2023-02-20T02:04:28;4.40;;;3.95;;
39426;SDS011;25938;48.470;1.486;2023-02-20T02:06:55;6.32;;;4.20;;
39426;SDS011;25938;48.470;1.486;2023-02-20T02:11:50;4.95;;;4.13;;
39426;SDS011;25938;48.470;1.486;2023-02-20T02:14:17;6.43;;;4.15;;
39426;SDS011;25938;48.470;1.486;2023-02-20T02:27:13;6.90;;;4.97;;
39426;SDS011;25938;48.470;1.486;2023-02-20T02:30:03;4.72;;;3.90;;
39426;SDS011;25938;48.470;1.486;2023-02-20T02:40:36;4.95;;;3.90;;
39426;SDS011;25938;48.470;1.486;2023-02-20T02:45:44;6.28;;;4.25;;
39426;SDS011;25938;48.470;1.486;2023-02-20T02:48:27;4.88;;;3.78;;
39426;SDS011;25938;48.470;1.486;2023-02-20T02:50:58;6.65;;;4.45;;
39426;SDS011;25938;48.470;1.486;2023-02-20T02:53:25;6.85;;;3.90;;
39426;SDS011;25938;48.470;1.486;2023-02-20T02:55:51;4.72;;;3.55;;
39426;SDS011;25938;48.470;1.486;2023-02-20T02:58:18;4.00;;;3.40;;
39426;SDS011;25938;48.470;1.486;2023-02-20T03:03:12;5.25;;;4.30;;
39426;SDS011;25938;48.470;1.486;2023-02-20T03:11:05;4.72;;;3.67;;
39426;SDS011;25938;48.470;1.486;2023-02-20T03:13:32;4.10;;;2.88;;
39426;SDS011;25938;48.470;1.486;2023-02-20T03:16:18;4.90;;;4.20;;
39426;SDS011;25938;48.470;1.486;2023-02-20T03:18:45;6.32;;;4.53;;
39426;SDS011;25938;48.470;1.486;2023-02-20T03:21:14;6.20;;;3.28;;
39426;SDS011;25938;48.470;1.486;2023-02-20T03:23:43;7.55;;;4.15;;
39426;SDS011;25938;48.470;1.486;2023-02-20T03:26:10;5.35;;;3.85;;
39426;SDS011;25938;48.470;1.486;2023-02-20T03:28:42;3.80;;;2.92;;
39426;SDS011;25938;48.470;1.486;2023-02-20T03:31:16;4.90;;;2.85;;
39426;SDS011;25938;48.470;1.486;2023-02-20T03:33:48;6.97;;;3.75;;
39426;SDS011;25938;48.470;1.486;2023-02-20T03:36:36;5.07;;;3.60;;
39426;SDS011;25938;48.470;1.486;2023-02-20T03:39:25;7.57;;;4.10;;
39426;SDS011;25938;48.470;1.486;2023-02-20T03:42:13;5.35;;;3.42;;
39426;SDS011;25938;48.470;1.486;2023-02-20T03:44:59;5.00;;;3.60;;
39426;SDS011;25938;48.470;1.486;2023-02-20T03:47:26;7.45;;;3.67;;
39426;SDS011;25938;48.470;1.486;2023-02-20T03:49:53;4.32;;;3.17;;
39426;SDS011;25938;48.470;1.486;2023-02-20T03:52:39;5.60;;;3.58;;
39426;SDS011;25938;48.470;1.486;2023-02-20T03:55:06;3.83;;;3.17;;
39426;SDS011;25938;48.470;1.486;2023-02-20T03:57:33;4.88;;;3.63;;
39426;SDS011;25938;48.470;1.486;2023-02-20T04:00:07;4.55;;;3.25;;
39426;SDS011;25938;48.470;1.486;2023-02-20T04:02:38;6.30;;;3.33;;
39426;SDS011;25938;48.470;1.486;2023-02-20T04:05:10;3.90;;;3.40;;
39426;SDS011;25938;48.470;1.486;2023-02-20T04:07:40;6.22;;;3.05;;
39426;SDS011;25938;48.470;1.486;2023-02-20T04:10:09;3.78;;;3.05;;
39426;SDS011;25938;48.470;1.486;2023-02-20T04:12:37;4.45;;;2.95;;
39426;SDS011;25938;48.470;1.486;2023-02-20T04:15:05;4.55;;;3.53;;
39426;SDS011;25938;48.470;1.486;2023-02-20T04:17:38;5.05;;;3.42;;
39426;SDS011;25938;48.470;1.486;2023-02-20T04:20:05;4.97;;;3.75;;
39426;SDS011;25938;48.470;1.486;2023-02-20T04:22:33;4.20;;;3.22;;
39426;SDS011;25938;48.470;1.486;2023-02-20T04:25:02;5.07;;;3.30;;
39426;SDS011;25938;48.470;1.486;2023-02-20T04:27:31;4.97;;;2.72;;
39426;SDS011;25938;48.470;1.486;2023-02-20T04:29:57;4.70;;;3.17;;
39426;SDS011;25938;48.470;1.486;2023-02-20T04:32:23;5.47;;;2.88;;
39426;SDS011;25938;48.470;1.486;2023-02-20T04:34:49;6.72;;;4.57;;
39426;SDS011;25938;48.470;1.486;2023-02-20T04:37:16;4.43;;;2.90;;
39426;SDS011;25938;48.470;1.486;2023-02-20T04:39:45;4.78;;;2.95;;
39426;SDS011;25938;48.470;1.486;2023-02-20T04:42:12;6.95;;;3.80;;
39426;SDS011;25938;48.470;1.486;2023-02-20T04:44:38;4.60;;;2.92;;
39426;SDS011;25938;48.470;1.486;2023-02-20T04:47:05;4.38;;;3.00;;
39426;SDS011;25938;48.470;1.486;2023-02-20T04:49:32;4.15;;;2.88;;
39426;SDS011;25938;48.470;1.486;2023-02-20T04:51:58;4.72;;;2.72;;
39426;SDS011;25938;48.470;1.486;2023-02-20T04:54:24;4.60;;;3.00;;
39426;SDS011;25938;48.470;1.486;2023-02-20T04:56:50;5.63;;;3.67;;
39426;SDS011;25938;48.470;1.486;2023-02-20T04:59:17;4.55;;;2.80;;
39426;SDS011;25938;48.470;1.486;2023-02-20T05:01:43;5.32;;;2.60;;
39426;SDS011;25938;48.470;1.486;2023-02-20T05:04:15;3.80;;;2.85;;
39426;SDS011;25938;48.470;1.486;2023-02-20T05:06:46;3.72;;;2.47;;
39426;SDS011;25938;48.470;1.486;2023-02-20T05:09:13;4.30;;;3.03;;
39426;SDS011;25938;48.470;1.486;2023-02-20T05:11:39;4.85;;;3.63;;
39426;SDS011;25938;48.470;1.486;2023-02-20T05:14:05;4.57;;;2.72;;
39426;SDS011;25938;48.470;1.486;2023-02-20T05:16:31;4.50;;;2.80;;
39426;SDS011;25938;48.470;1.486;2023-02-20T05:18:58;5.13;;;3.33;;
39426;SDS011;25938;48.470;1.486;2023-02-20T05:21:25;3.47;;;2.40;;
39426;SDS011;25938;48.470;1.486;2023-02-20T05:24:10;5.20;;;4.03;;
39426;SDS011;25938;48.470;1.486;2023-02-20T05:26:36;5.38;;;3.00;;
39426;SDS011;25938;48.470;1.486;2023-02-20T05:29:03;4.22;;;2.60;;
39426;SDS011;25938;48.470;1.486;2023-02-20T05:31:29;4.93;;;3.72;;
39426;SDS011;25938;48.470;1.486;2023-02-20T05:33:55;5.13;;;2.72;;
39426;SDS011;25938;48.470;1.486;2023-02-20T05:36:21;5.68;;;3.58;;
39426;SDS011;25938;48.470;1.486;2023-02-20T05:38:47;3.50;;;2.53;;
39426;SDS011;25938;48.470;1.486;2023-02-20T05:41:14;4.30;;;2.17;;
39426;SDS011;25938;48.470;1.486;2023-02-20T05:43:40;3.92;;;2.80;;
39426;SDS011;25938;48.470;1.486;2023-02-20T05:46:06;7.95;;;2.95;;
39426;SDS011;25938;48.470;1.486;2023-02-20T05:48:32;5.95;;;3.33;;
39426;SDS011;25938;48.470;1.486;2023-02-20T05:50:58;3.45;;;3.13;;
39426;SDS011;25938;48.470;1.486;2023-02-20T05:53:28;4.00;;;3.00;;
39426;SDS011;25938;48.470;1.486;2023-02-20T05:55:54;4.60;;;3.28;;
39426;SDS011;25938;48.470;1.486;2023-02-20T05:58:20;5.20;;;2.75;;
39426;SDS011;25938;48.470;1.486;2023-02-20T06:00:46;6.32;;;3.13;;
39426;SDS011;25938;48.470;1.486;2023-02-20T06:03:13;5.18;;;3.55;;
39426;SDS011;25938;48.470;1.486;2023-02-20T06:05:39;4.43;;;3.35;;
39426;SDS011;25938;48.470;1.486;2023-02-20T06:08:05;5.30;;;2.95;;
39426;SDS011;25938;48.470;1.486;2023-02-20T06:10:32;7.28;;;3.45;;
39426;SDS011;25938;48.470;1.486;2023-02-20T06:12:58;4.65;;;2.90;;
39426;SDS011;25938;48.470;1.486;2023-02-20T06:15:24;5.00;;;3.40;;
39426;SDS011;25938;48.470;1.486;2023-02-20T06:17:50;4.13;;;3.08;;
39426;SDS011;25938;48.470;1.486;2023-02-20T06:20:16;5.55;;;3.25;;
39426;SDS011;25938;48.470;1.486;2023-02-20T06:22:42;4.10;;;3.03;;
39426;SDS011;25938;48.470;1.486;2023-02-20T06:25:09;5.82;;;2.78;;
39426;SDS011;25938;48.470;1.486;2023-02-20T06:27:37;5.18;;;3.08;;
39426;SDS011;25938;48.470;1.486;2023-02-20T06:30:03;5.70;;;3.58;;
39426;SDS011;25938;48.470;1.486;2023-02-20T06:32:29;7.60;;;3.50;;
39426;SDS011;25938;48.470;1.486;2023-02-20T06:34:55;6.10;;;4.00;;
39426;SDS011;25938;48.470;1.486;2023-02-20T06:37:21;5.50;;;4.00;;
39426;SDS011;25938;48.470;1.486;2023-02-20T06:39:48;4.88;;;3.35;;
39426;SDS011;25938;48.470;1.486;2023-02-20T06:42:14;5.50;;;3.88;;
39426;SDS011;25938;48.470;1.486;2023-02-20T06:44:40;6.50;;;3.90;;
39426;SDS011;25938;48.470;1.486;2023-02-20T06:47:06;5.85;;;4.10;;
39426;SDS011;25938;48.470;1.486;2023-02-20T06:49:35;8.35;;;3.50;;
39426;SDS011;25938;48.470;1.486;2023-02-20T06:52:02;7.65;;;3.83;;
39426;SDS011;25938;48.470;1.486;2023-02-20T06:54:28;9.68;;;4.35;;
39426;SDS011;25938;48.470;1.486;2023-02-20T06:56:54;7.65;;;4.57;;
39426;SDS011;25938;48.470;1.486;2023-02-20T06:59:21;8.13;;;3.72;;
39426;SDS011;25938;48.470;1.486;2023-02-20T07:01:47;6.72;;;3.72;;
39426;SDS011;25938;48.470;1.486;2023-02-20T07:04:17;7.88;;;4.65;;
39426;SDS011;25938;48.470;1.486;2023-02-20T07:06:44;8.30;;;4.07;;
39426;SDS011;25938;48.470;1.486;2023-02-20T07:09:11;7.32;;;4.00;;
39426;SDS011;25938;48.470;1.486;2023-02-20T07:11:37;5.60;;;3.80;;
39426;SDS011;25938;48.470;1.486;2023-02-20T07:14:03;7.22;;;4.40;;
39426;SDS011;25938;48.470;1.486;2023-02-20T07:16:29;6.00;;;4.15;;
39426;SDS011;25938;48.470;1.486;2023-02-20T07:18:55;5.32;;;3.85;;
39426;SDS011;25938;48.470;1.486;2023-02-20T07:21:22;5.35;;;3.38;;
39426;SDS011;25938;48.470;1.486;2023-02-20T07:23:48;5.28;;;4.13;;
39426;SDS011;25938;48.470;1.486;2023-02-20T07:26:21;6.68;;;3.75;;
39426;SDS011;25938;48.470;1.486;2023-02-20T07:31:13;3.92;;;3.42;;
39426;SDS011;25938;48.470;1.486;2023-02-20T07:33:39;4.57;;;3.03;;
39426;SDS011;25938;48.470;1.486;2023-02-20T07:36:07;5.57;;;3.55;;
39426;SDS011;25938;48.470;1.486;2023-02-20T07:38:34;4.95;;;2.75;;
39426;SDS011;25938;48.470;1.486;2023-02-20T07:41:00;7.03;;;3.03;;
39426;SDS011;25938;48.470;1.486;2023-02-20T07:43:26;3.50;;;2.35;;
39426;SDS011;25938;48.470;1.486;2023-02-20T07:45:52;4.85;;;3.63;;
39426;SDS011;25938;48.470;1.486;2023-02-20T07:48:18;4.63;;;3.33;;
39426;SDS011;25938;48.470;1.486;2023-02-20T07:50:44;3.47;;;3.17;;
39426;SDS011;25938;48.470;1.486;2023-02-20T07:53:13;5.78;;;3.00;;
39426;SDS011;25938;48.470;1.486;2023-02-20T07:55:40;4.03;;;3.13;;
39426;SDS011;25938;48.470;1.486;2023-02-20T07:58:06;3.17;;;2.85;;
39426;SDS011;25938;48.470;1.486;2023-02-20T08:00:32;3.47;;;2.70;;
39426;SDS011;25938;48.470;1.486;2023-02-20T08:02:58;4.35;;;2.60;;
39426;SDS011;25938;48.470;1.486;2023-02-20T08:05:30;3.03;;;2.47;;
39426;SDS011;25938;48.470;1.486;2023-02-20T08:07:56;3.50;;;3.20;;
39426;SDS011;25938;48.470;1.486;2023-02-20T08:10:24;3.95;;;3.28;;
39426;SDS011;25938;48.470;1.486;2023-02-20T08:12:50;6.43;;;3.50;;
39426;SDS011;25938;48.470;1.486;2023-02-20T08:15:17;4.45;;;3.10;;
39426;SDS011;25938;48.470;1.486;2023-02-20T08:17:43;4.57;;;3.05;;
39426;SDS011;25938;48.470;1.486;2023-02-20T08:20:09;4.30;;;3.05;;
39426;SDS011;25938;48.470;1.486;2023-02-20T08:22:35;3.33;;;3.03;;
39426;SDS011;25938;48.470;1.486;2023-02-20T08:25:02;3.55;;;2.60;;
39426;SDS011;25938;48.470;1.486;2023-02-20T08:27:29;5.05;;;3.40;;
39426;SDS011;25938;48.470;1.486;2023-02-20T08:29:55;3.50;;;2.80;;
39426;SDS011;25938;48.470;1.486;2023-02-20T08:32:21;3.63;;;2.90;;
39426;SDS011;25938;48.470;1.486;2023-02-20T08:34:47;3.80;;;2.90;;
39426;SDS011;25938;48.470;1.486;2023-02-20T08:37:13;7.32;;;3.80;;
39426;SDS011;25938;48.470;1.486;2023-02-20T08:39:39;3.10;;;2.88;;
39426;SDS011;25938;48.470;1.486;2023-02-20T08:42:05;4.53;;;3.17;;
39426;SDS011;25938;48.470;1.486;2023-02-20T08:44:31;4.13;;;3.42;;
39426;SDS011;25938;48.470;1.486;2023-02-20T08:46:59;6.88;;;4.68;;
39426;SDS011;25938;48.470;1.486;2023-02-20T08:49:25;5.03;;;3.88;;
39426;SDS011;25938;48.470;1.486;2023-02-20T08:51:52;4.88;;;4.32;;
39426;SDS011;25938;48.470;1.486;2023-02-20T08:54:19;4.88;;;4.47;;
39426;SDS011;25938;48.470;1.486;2023-02-20T08:56:45;4.75;;;3.70;;
39426;SDS011;25938;48.470;1.486;2023-02-20T08:59:11;3.60;;;3.30;;
39426;SDS011;25938;48.470;1.486;2023-02-20T09:01:41;5.63;;;3.35;;
39426;SDS011;25938;48.470;1.486;2023-02-20T09:04:07;3.55;;;3.22;;
39426;SDS011;25938;48.470;1.486;2023-02-20T09:06:34;3.75;;;3.40;;
39426;SDS011;25938;48.470;1.486;2023-02-20T09:09:00;4.55;;;3.47;;
39426;SDS011;25938;48.470;1.486;2023-02-20T09:11:27;5.45;;;4.10;;
39426;SDS011;25938;48.470;1.486;2023-02-20T09:13:53;4.70;;;3.63;;
39426;SDS011;25938;48.470;1.486;2023-02-20T09:16:20;6.70;;;3.78;;
39426;SDS011;25938;48.470;1.486;2023-02-20T09:18:46;5.72;;;3.40;;
39426;SDS011;25938;48.470;1.486;2023-02-20T09:21:13;4.60;;;3.38;;
39426;SDS011;25938;48.470;1.486;2023-02-20T09:23:40;3.85;;;3.17;;
39426;SDS011;25938;48.470;1.486;2023-02-20T09:26:06;4.65;;;3.45;;
39426;SDS011;25938;48.470;1.486;2023-02-20T09:28:32;4.80;;;3.75;;
39426;SDS011;25938;48.470;1.486;2023-02-20T09:30:58;4.93;;;2.95;;
39426;SDS011;25938;48.470;1.486;2023-02-20T09:33:25;3.95;;;3.30;;
39426;SDS011;25938;48.470;1.486;2023-02-20T09:35:52;4.18;;;3.03;;
39426;SDS011;25938;48.470;1.486;2023-02-20T09:38:19;5.15;;;3.10;;
39426;SDS011;25938;48.470;1.486;2023-02-20T09:40:45;4.13;;;3.10;;
39426;SDS011;25938;48.470;1.486;2023-02-20T09:51:03;3.97;;;2.35;;
39426;SDS011;25938;48.470;1.486;2023-02-20T09:53:32;3.08;;;2.80;;
39426;SDS011;25938;48.470;1.486;2023-02-20T09:56:00;6.25;;;2.53;;
39426;SDS011;25938;48.470;1.486;2023-02-20T09:58:28;3.28;;;2.60;;
39426;SDS011;25938;48.470;1.486;2023-02-20T10:00:57;3.58;;;2.78;;
39426;SDS011;25938;48.470;1.486;2023-02-20T10:03:30;3.67;;;2.10;;
39426;SDS011;25938;48.470;1.486;2023-02-20T10:05:59;3.15;;;2.05;;
39426;SDS011;25938;48.470;1.486;2023-02-20T10:08:26;2.95;;;2.13;;
39426;SDS011;25938;48.470;1.486;2023-02-20T10:10:52;4.10;;;2.05;;
39426;SDS011;25938;48.470;1.486;2023-02-20T10:16:16;2.58;;;1.80;;
39426;SDS011;25938;48.470;1.486;2023-02-20T10:26:12;4.45;;;2.00;;
39426;SDS011;25938;48.470;1.486;2023-02-20T10:28:39;3.13;;;1.52;;
39426;SDS011;25938;48.470;1.486;2023-02-20T10:31:08;4.45;;;2.40;;
39426;SDS011;25938;48.470;1.486;2023-02-20T10:38:35;2.67;;;1.75;;
39426;SDS011;25938;48.470;1.486;2023-02-20T10:43:43;3.40;;;1.90;;
39426;SDS011;25938;48.470;1.486;2023-02-20T10:46:14;2.70;;;1.60;;
39426;SDS011;25938;48.470;1.486;2023-02-20T10:48:41;2.55;;;1.60;;
39426;SDS011;25938;48.470;1.486;2023-02-20T10:56:30;3.67;;;1.00;;
39426;SDS011;25938;48.470;1.486;2023-02-20T10:59:01;2.00;;;0.95;;
39426;SDS011;25938;48.470;1.486;2023-02-20T11:01:31;1.35;;;0.90;;
39426;SDS011;25938;48.470;1.486;2023-02-20T11:06:53;5.30;;;1.63;;
39426;SDS011;25938;48.470;1.486;2023-02-20T11:09:19;3.60;;;1.20;;
39426;SDS011;25938;48.470;1.486;2023-02-20T11:11:47;2.63;;;0.80;;
39426;SDS011;25938;48.470;1.486;2023-02-20T11:16:44;6.07;;;2.58;;
39426;SDS011;25938;48.470;1.486;2023-02-20T11:19:37;2.08;;;1.60;;
39426;SDS011;25938;48.470;1.486;2023-02-20T11:21:58;2.83;;;1.67;;
39426;SDS011;25938;48.470;1.486;2023-02-20T11:24:26;2.80;;;1.70;;
39426;SDS011;25938;48.470;1.486;2023-02-20T11:26:57;2.17;;;1.90;;
39426;SDS011;25938;48.470;1.486;2023-02-20T11:29:24;3.33;;;1.98;;
39426;SDS011;25938;48.470;1.486;2023-02-20T11:31:53;2.20;;;1.77;;
39426;SDS011;25938;48.470;1.486;2023-02-20T11:34:20;4.85;;;2.15;;
39426;SDS011;25938;48.470;1.486;2023-02-20T11:36:51;2.10;;;1.90;;
39426;SDS011;25938;48.470;1.486;2023-02-20T11:39:24;2.47;;;1.65;;
39426;SDS011;25938;48.470;1.486;2023-02-20T11:42:11;2.50;;;1.88;;
39426;SDS011;25938;48.470;1.486;2023-02-20T11:44:38;4.00;;;2.33;;
39426;SDS011;25938;48.470;1.486;2023-02-20T11:47:08;2.80;;;1.40;;
39426;SDS011;25938;48.470;1.486;2023-02-20T11:49:35;3.47;;;1.55;;
39426;SDS011;25938;48.470;1.486;2023-02-20T11:52:08;3.00;;;2.45;;
39426;SDS011;25938;48.470;1.486;2023-02-20T11:54:35;3.13;;;1.90;;
39426;SDS011;25938;48.470;1.486;2023-02-20T12:02:17;2.20;;;1.60;;
39426;SDS011;25938;48.470;1.486;2023-02-20T12:07:37;2.97;;;1.50;;
39426;SDS011;25938;48.470;1.486;2023-02-20T12:10:46;1.90;;;1.50;;
39426;SDS011;25938;48.470;1.486;2023-02-20T12:12:53;4.05;;;2.22;;
39426;SDS011;25938;48.470;1.486;2023-02-20T12:15:23;2.65;;;1.60;;
39426;SDS011;25938;48.470;1.486;2023-02-20T12:20:20;3.10;;;2.28;;
39426;SDS011;25938;48.470;1.486;2023-02-20T12:25:35;2.05;;;1.60;;
39426;SDS011;25938;48.470;1.486;2023-02-20T12:28:14;2.75;;;1.98;;
39426;SDS011;25938;48.470;1.486;2023-02-20T12:30:46;1.60;;;1.40;;
39426;SDS011;25938;48.470;1.486;2023-02-20T12:38:52;1.70;;;1.15;;
39426;SDS011;25938;48.470;1.486;2023-02-20T12:49:37;1.83;;;1.63;;
39426;SDS011;25938;48.470;1.486;2023-02-20T12:57:34;2.92;;;1.30;;
39426;SDS011;25938;48.470;1.486;2023-02-20T13:02:49;2.63;;;1.42;;
39426;SDS011;25938;48.470;1.486;2023-02-20T13:05:17;2.70;;;1.73;;
39426;SDS011;25938;48.470;1.486;2023-02-20T13:07:51;3.40;;;1.40;;
39426;SDS011;25938;48.470;1.486;2023-02-20T13:12:44;1.52;;;1.17;;
39426;SDS011;25938;48.470;1.486;2023-02-20T13:15:20;2.28;;;1.10;;
39426;SDS011;25938;48.470;1.486;2023-02-20T13:18:00;3.45;;;1.70;;
39426;SDS011;25938;48.470;1.486;2023-02-20T13:20:32;3.00;;;1.52;;
39426;SDS011;25938;48.470;1.486;2023-02-20T13:23:03;2.83;;;1.42;;
39426;SDS011;25938;48.470;1.486;2023-02-20T13:25:34;2.33;;;1.45;;
39426;SDS011;25938;48.470;1.486;2023-02-20T13:30:37;1.52;;;1.33;;
39426;SDS011;25938;48.470;1.486;2023-02-20T13:33:17;1.40;;;1.30;;
39426;SDS011;25938;48.470;1.486;2023-02-20T13:35:53;1.40;;;1.30;;
39426;SDS011;25938;48.470;1.486;2023-02-20T13:38:21;2.70;;;2.05;;
39426;SDS011;25938;48.470;1.486;2023-02-20T13:53:40;2.58;;;1.85;;
39426;SDS011;25938;48.470;1.486;2023-02-20T13:56:16;2.40;;;1.95;;
39426;SDS011;25938;48.470;1.486;2023-02-20T13:58:43;1.55;;;1.27;;
39426;SDS011;25938;48.470;1.486;2023-02-20T14:01:09;2.00;;;1.80;;
39426;SDS011;25938;48.470;1.486;2023-02-20T14:03:35;2.72;;;1.42;;
39426;SDS011;25938;48.470;1.486;2023-02-20T14:08:34;7.43;;;3.47;;
39426;SDS011;25938;48.470;1.486;2023-02-20T14:11:11;4.60;;;4.13;;
39426;SDS011;25938;48.470;1.486;2023-02-20T14:13:38;6.15;;;4.32;;
39426;SDS011;25938;48.470;1.486;2023-02-20T14:16:04;4.25;;;2.85;;
39426;SDS011;25938;48.470;1.486;2023-02-20T14:18:48;5.60;;;4.00;;
39426;SDS011;25938;48.470;1.486;2023-02-20T14:21:15;2.83;;;2.60;;
39426;SDS011;25938;48.470;1.486;2023-02-20T14:23:42;4.28;;;2.20;;
39426;SDS011;25938;48.470;1.486;2023-02-20T14:28:47;5.53;;;2.20;;
39426;SDS011;25938;48.470;1.486;2023-02-20T14:31:21;2.72;;;1.80;;
39426;SDS011;25938;48.470;1.486;2023-02-20T14:33:49;4.25;;;2.08;;
39426;SDS011;25938;48.470;1.486;2023-02-20T14:38:49;4.03;;;1.73;;
39426;SDS011;25938;48.470;1.486;2023-02-20T14:41:21;2.40;;;1.40;;
39426;SDS011;25938;48.470;1.486;2023-02-20T14:44:12;6.07;;;2.28;;
39426;SDS011;25938;48.470;1.486;2023-02-20T14:46:36;2.67;;;1.80;;
39426;SDS011;25938;48.470;1.486;2023-02-20T14:49:13;3.22;;;1.40;;
39426;SDS011;25938;48.470;1.486;2023-02-20T14:51:39;4.97;;;1.60;;
39426;SDS011;25938;48.470;1.486;2023-02-20T14:54:22;2.70;;;2.20;;
39426;SDS011;25938;48.470;1.486;2023-02-20T14:56:48;3.90;;;1.88;;
39426;SDS011;25938;48.470;1.486;2023-02-20T14:59:27;3.72;;;1.90;;
39426;SDS011;25938;48.470;1.486;2023-02-20T15:01:55;2.95;;;1.90;;
39426;SDS011;25938;48.470;1.486;2023-02-20T15:04:21;5.57;;;2.22;;
39426;SDS011;25938;48.470;1.486;2023-02-20T15:06:48;3.63;;;2.20;;
39426;SDS011;25938;48.470;1.486;2023-02-20T15:09:15;3.67;;;2.00;;
39426;SDS011;25938;48.470;1.486;2023-02-20T15:11:52;2.10;;;1.85;;
39426;SDS011;25938;48.470;1.486;2023-02-20T15:14:19;2.30;;;1.63;;
39426;SDS011;25938;48.470;1.486;2023-02-20T15:16:46;2.65;;;1.27;;
39426;SDS011;25938;48.470;1.486;2023-02-20T15:19:19;2.75;;;1.90;;
39426;SDS011;25938;48.470;1.486;2023-02-20T15:26:47;1.75;;;1.10;;
39426;SDS011;25938;48.470;1.486;2023-02-20T15:31:58;3.20;;;1.40;;
39426;SDS011;25938;48.470;1.486;2023-02-20T15:34:31;2.33;;;1.63;;
39426;SDS011;25938;48.470;1.486;2023-02-20T15:36:58;3.28;;;1.77;;
39426;SDS011;25938;48.470;1.486;2023-02-20T15:39:24;3.47;;;1.25;;
39426;SDS011;25938;48.470;1.486;2023-02-20T15:41:51;2.30;;;1.40;;
39426;SDS011;25938;48.470;1.486;2023-02-20T15:44:17;2.45;;;1.50;;
39426;SDS011;25938;48.470;1.486;2023-02-20T15:46:43;4.38;;;1.88;;
39426;SDS011;25938;48.470;1.486;2023-02-20T15:49:09;4.55;;;1.50;;
39426;SDS011;25938;48.470;1.486;2023-02-20T15:51:39;1.45;;;1.30;;
39426;SDS011;25938;48.470;1.486;2023-02-20T15:54:06;3.15;;;1.10;;
39426;SDS011;25938;48.470;1.486;2023-02-20T15:56:36;2.97;;;1.98;;
39426;SDS011;25938;48.470;1.486;2023-02-20T15:59:06;3.50;;;1.63;;
39426;SDS011;25938;48.470;1.486;2023-02-20T16:01:33;3.50;;;1.30;;
39426;SDS011;25938;48.470;1.486;2023-02-20T16:03:59;1.40;;;1.10;;
39426;SDS011;25938;48.470;1.486;2023-02-20T16:06:25;2.33;;;1.30;;
39426;SDS011;25938;48.470;1.486;2023-02-20T16:08:51;1.25;;;1.10;;
39426;SDS011;25938;48.470;1.486;2023-02-20T16:11:28;2.60;;;1.33;;
39426;SDS011;25938;48.470;1.486;2023-02-20T16:13:58;2.55;;;2.15;;
39426;SDS011;25938;48.470;1.486;2023-02-20T16:16:32;1.65;;;1.20;;
39426;SDS011;25938;48.470;1.486;2023-02-20T16:18:59;2.95;;;1.20;;
39426;SDS011;25938;48.470;1.486;2023-02-20T16:21:25;2.22;;;1.35;;
39426;SDS011;25938;48.470;1.486;2023-02-20T16:23:51;2.25;;;2.05;;
39426;SDS011;25938;48.470;1.486;2023-02-20T16:26:18;2.72;;;2.42;;
39426;SDS011;25938;48.470;1.486;2023-02-20T16:28:47;3.08;;;2.50;;
39426;SDS011;25938;48.470;1.486;2023-02-20T16:31:15;4.78;;;2.20;;
39426;SDS011;25938;48.470;1.486;2023-02-20T16:33:41;4.82;;;2.20;;
39426;SDS011;25938;48.470;1.486;2023-02-20T16:36:07;2.45;;;2.22;;
39426;SDS011;25938;48.470;1.486;2023-02-20T16:38:34;3.83;;;2.33;;
39426;SDS011;25938;48.470;1.486;2023-02-20T16:41:00;4.03;;;2.42;;
39426;SDS011;25938;48.470;1.486;2023-02-20T16:43:27;2.95;;;2.60;;
39426;SDS011;25938;48.470;1.486;2023-02-20T16:45:54;3.03;;;2.70;;
39426;SDS011;25938;48.470;1.486;2023-02-20T16:48:20;3.63;;;2.35;;
39426;SDS011;25938;48.470;1.486;2023-02-20T16:50:47;4.35;;;2.67;;
39426;SDS011;25938;48.470;1.486;2023-02-20T16:53:14;2.35;;;2.13;;
39426;SDS011;25938;48.470;1.486;2023-02-20T16:55:40;3.92;;;2.30;;
39426;SDS011;25938;48.470;1.486;2023-02-20T16:58:08;3.25;;;2.42;;
39426;SDS011;25938;48.470;1.486;2023-02-20T17:00:35;2.45;;;2.03;;
39426;SDS011;25938;48.470;1.486;2023-02-20T17:03:03;2.58;;;2.17;;
39426;SDS011;25938;48.470;1.486;2023-02-20T17:05:31;3.13;;;2.75;;
39426;SDS011;25938;48.470;1.486;2023-02-20T17:07:58;1.92;;;1.55;;
39426;SDS011;25938;48.470;1.486;2023-02-20T17:10:24;2.97;;;2.00;;
39426;SDS011;25938;48.470;1.486;2023-02-20T17:12:51;2.85;;;1.92;;
39426;SDS011;25938;48.470;1.486;2023-02-20T17:15:18;3.92;;;2.13;;
39426;SDS011;25938;48.470;1.486;2023-02-20T17:17:44;3.72;;;2.53;;
39426;SDS011;25938;48.470;1.486;2023-02-20T17:20:12;3.97;;;1.80;;